sensor_id;sensor_type;location;lat;lon;timestamp;P1;durP1;ratioP1;P2;durP2;ratioP2
21432;SDS011;18592;49.708;10.900;2023-10-08T00:00:26;5.03;;;2.70;;
21432;SDS011;18592;49.708;10.900;2023-10-08T00:02:46;3.92;;;2.65;;
21432;SDS011;18592;49.708;10.900;2023-10-08T00:04:48;4.53;;;3.00;;
21432;SDS011;18592;49.708;10.900;2023-10-08T00:06:52;4.78;;;2.78;;
21432;SDS011;18592;49.708;10.900;2023-10-08T00:08:54;3.92;;;2.55;;
21432;SDS011;18592;49.708;10.900;2023-10-08T00:11:06;4.18;;;2.80;;
21432;SDS011;18592;49.708;10.900;2023-10-08T00:13:11;3.58;;;2.53;;
21432;SDS011;18592;49.708;10.900;2023-10-08T00:15:14;3.13;;;2.60;;
21432;SDS011;18592;49.708;10.900;2023-10-08T00:17:16;4.07;;;2.60;;
21432;SDS011;18592;49.708;10.900;2023-10-08T00:19:18;4.40;;;2.60;;
21432;SDS011;18592;49.708;10.900;2023-10-08T00:21:21;3.47;;;2.65;;
21432;SDS011;18592;49.708;10.900;2023-10-08T00:23:29;4.25;;;2.70;;
21432;SDS011;18592;49.708;10.900;2023-10-08T00:25:31;3.53;;;2.60;;
21432;SDS011;18592;49.708;10.900;2023-10-08T00:27:34;4.97;;;2.63;;
21432;SDS011;18592;49.708;10.900;2023-10-08T00:29:40;5.50;;;2.85;;
21432;SDS011;18592;49.708;10.900;2023-10-08T00:31:45;4.28;;;2.72;;
21432;SDS011;18592;49.708;10.900;2023-10-08T00:33:47;5.00;;;2.72;;
21432;SDS011;18592;49.708;10.900;2023-10-08T00:35:49;4.18;;;2.72;;
21432;SDS011;18592;49.708;10.900;2023-10-08T00:37:51;4.32;;;2.70;;
21432;SDS011;18592;49.708;10.900;2023-10-08T00:39:52;4.13;;;2.63;;
21432;SDS011;18592;49.708;10.900;2023-10-08T00:41:58;4.57;;;2.75;;
21432;SDS011;18592;49.708;10.900;2023-10-08T00:44:01;4.78;;;3.08;;
21432;SDS011;18592;49.708;10.900;2023-10-08T00:46:03;4.78;;;2.85;;
21432;SDS011;18592;49.708;10.900;2023-10-08T00:48:25;3.47;;;2.72;;
21432;SDS011;18592;49.708;10.900;2023-10-08T00:50:30;4.63;;;2.60;;
21432;SDS011;18592;49.708;10.900;2023-10-08T00:52:44;3.97;;;2.67;;
21432;SDS011;18592;49.708;10.900;2023-10-08T00:54:58;3.67;;;2.50;;
21432;SDS011;18592;49.708;10.900;2023-10-08T00:57:06;4.03;;;3.08;;
21432;SDS011;18592;49.708;10.900;2023-10-08T00:59:08;4.80;;;3.00;;
21432;SDS011;18592;49.708;10.900;2023-10-08T01:01:14;5.63;;;2.65;;
21432;SDS011;18592;49.708;10.900;2023-10-08T01:03:18;3.92;;;2.72;;
21432;SDS011;18592;49.708;10.900;2023-10-08T01:05:21;3.83;;;2.80;;
21432;SDS011;18592;49.708;10.900;2023-10-08T01:07:43;3.45;;;2.53;;
21432;SDS011;18592;49.708;10.900;2023-10-08T01:09:50;3.65;;;2.38;;
21432;SDS011;18592;49.708;10.900;2023-10-08T01:14:37;4.97;;;2.97;;
21432;SDS011;18592;49.708;10.900;2023-10-08T01:16:38;3.88;;;2.67;;
21432;SDS011;18592;49.708;10.900;2023-10-08T01:18:43;3.63;;;2.85;;
21432;SDS011;18592;49.708;10.900;2023-10-08T01:20:48;4.35;;;2.70;;
21432;SDS011;18592;49.708;10.900;2023-10-08T01:22:57;5.82;;;3.08;;
21432;SDS011;18592;49.708;10.900;2023-10-08T01:24:59;3.58;;;2.40;;
21432;SDS011;18592;49.708;10.900;2023-10-08T01:27:02;4.13;;;2.30;;
21432;SDS011;18592;49.708;10.900;2023-10-08T01:29:13;4.43;;;2.90;;
21432;SDS011;18592;49.708;10.900;2023-10-08T01:31:24;3.75;;;2.55;;
21432;SDS011;18592;49.708;10.900;2023-10-08T01:33:26;4.00;;;2.78;;
21432;SDS011;18592;49.708;10.900;2023-10-08T01:35:39;3.55;;;2.50;;
21432;SDS011;18592;49.708;10.900;2023-10-08T01:37:51;3.65;;;2.50;;
21432;SDS011;18592;49.708;10.900;2023-10-08T01:39:53;3.78;;;2.90;;
21432;SDS011;18592;49.708;10.900;2023-10-08T01:41:55;3.92;;;2.53;;
21432;SDS011;18592;49.708;10.900;2023-10-08T01:43:57;5.18;;;2.90;;
21432;SDS011;18592;49.708;10.900;2023-10-08T01:46:02;3.80;;;2.70;;
21432;SDS011;18592;49.708;10.900;2023-10-08T01:48:05;3.50;;;2.70;;
21432;SDS011;18592;49.708;10.900;2023-10-08T01:50:07;4.30;;;2.67;;
21432;SDS011;18592;49.708;10.900;2023-10-08T01:52:22;4.28;;;2.67;;
21432;SDS011;18592;49.708;10.900;2023-10-08T01:54:23;4.63;;;3.00;;
21432;SDS011;18592;49.708;10.900;2023-10-08T01:56:27;4.18;;;2.55;;
21432;SDS011;18592;49.708;10.900;2023-10-08T01:58:37;4.50;;;3.00;;
21432;SDS011;18592;49.708;10.900;2023-10-08T02:00:41;3.67;;;2.70;;
21432;SDS011;18592;49.708;10.900;2023-10-08T02:02:49;4.35;;;2.42;;
21432;SDS011;18592;49.708;10.900;2023-10-08T02:04:51;5.43;;;3.08;;
21432;SDS011;18592;49.708;10.900;2023-10-08T02:06:54;4.68;;;2.85;;
21432;SDS011;18592;49.708;10.900;2023-10-08T02:08:55;4.65;;;2.22;;
21432;SDS011;18592;49.708;10.900;2023-10-08T02:10:57;4.22;;;2.88;;
21432;SDS011;18592;49.708;10.900;2023-10-08T02:12:58;4.57;;;2.60;;
21432;SDS011;18592;49.708;10.900;2023-10-08T02:15:00;4.53;;;3.15;;
21432;SDS011;18592;49.708;10.900;2023-10-08T02:17:04;2.75;;;2.35;;
21432;SDS011;18592;49.708;10.900;2023-10-08T02:19:08;2.97;;;2.38;;
21432;SDS011;18592;49.708;10.900;2023-10-08T02:21:12;4.28;;;2.83;;
21432;SDS011;18592;49.708;10.900;2023-10-08T02:23:14;3.95;;;2.50;;
21432;SDS011;18592;49.708;10.900;2023-10-08T02:25:16;4.43;;;2.88;;
21432;SDS011;18592;49.708;10.900;2023-10-08T02:27:19;4.90;;;2.50;;
21432;SDS011;18592;49.708;10.900;2023-10-08T02:29:23;4.03;;;2.85;;
21432;SDS011;18592;49.708;10.900;2023-10-08T02:31:26;4.07;;;2.58;;
21432;SDS011;18592;49.708;10.900;2023-10-08T02:33:29;4.60;;;2.80;;
21432;SDS011;18592;49.708;10.900;2023-10-08T02:35:31;3.88;;;2.40;;
21432;SDS011;18592;49.708;10.900;2023-10-08T02:37:37;3.92;;;2.75;;
21432;SDS011;18592;49.708;10.900;2023-10-08T02:39:40;4.05;;;2.88;;
21432;SDS011;18592;49.708;10.900;2023-10-08T02:41:42;3.78;;;2.63;;
21432;SDS011;18592;49.708;10.900;2023-10-08T02:43:48;4.85;;;2.78;;
21432;SDS011;18592;49.708;10.900;2023-10-08T02:45:49;4.00;;;2.70;;
21432;SDS011;18592;49.708;10.900;2023-10-08T02:47:52;3.90;;;2.50;;
21432;SDS011;18592;49.708;10.900;2023-10-08T02:49:54;3.80;;;2.40;;
21432;SDS011;18592;49.708;10.900;2023-10-08T02:52:01;5.10;;;2.80;;
21432;SDS011;18592;49.708;10.900;2023-10-08T02:54:05;4.65;;;2.70;;
21432;SDS011;18592;49.708;10.900;2023-10-08T02:56:07;5.40;;;2.70;;
21432;SDS011;18592;49.708;10.900;2023-10-08T02:58:14;4.95;;;2.83;;
21432;SDS011;18592;49.708;10.900;2023-10-08T03:00:17;4.32;;;2.63;;
21432;SDS011;18592;49.708;10.900;2023-10-08T03:02:21;3.17;;;2.35;;
21432;SDS011;18592;49.708;10.900;2023-10-08T03:04:27;3.83;;;2.85;;
21432;SDS011;18592;49.708;10.900;2023-10-08T03:06:29;3.70;;;2.65;;
21432;SDS011;18592;49.708;10.900;2023-10-08T03:08:33;3.80;;;2.50;;
21432;SDS011;18592;49.708;10.900;2023-10-08T03:10:47;5.30;;;2.95;;
21432;SDS011;18592;49.708;10.900;2023-10-08T03:12:50;4.15;;;2.88;;
21432;SDS011;18592;49.708;10.900;2023-10-08T03:14:51;3.47;;;2.67;;
21432;SDS011;18592;49.708;10.900;2023-10-08T03:17:03;6.03;;;2.78;;
21432;SDS011;18592;49.708;10.900;2023-10-08T03:19:09;4.65;;;2.88;;
21432;SDS011;18592;49.708;10.900;2023-10-08T03:21:11;3.53;;;2.40;;
21432;SDS011;18592;49.708;10.900;2023-10-08T03:23:25;4.05;;;2.65;;
21432;SDS011;18592;49.708;10.900;2023-10-08T03:25:40;3.42;;;2.42;;
21432;SDS011;18592;49.708;10.900;2023-10-08T03:27:46;4.05;;;2.60;;
21432;SDS011;18592;49.708;10.900;2023-10-08T03:29:49;3.50;;;2.60;;
21432;SDS011;18592;49.708;10.900;2023-10-08T03:31:51;3.53;;;2.38;;
21432;SDS011;18592;49.708;10.900;2023-10-08T03:33:54;3.80;;;2.80;;
21432;SDS011;18592;49.708;10.900;2023-10-08T03:35:57;3.60;;;2.33;;
21432;SDS011;18592;49.708;10.900;2023-10-08T03:37:58;3.42;;;2.35;;
21432;SDS011;18592;49.708;10.900;2023-10-08T03:40:20;4.03;;;2.53;;
21432;SDS011;18592;49.708;10.900;2023-10-08T03:42:43;3.63;;;2.53;;
21432;SDS011;18592;49.708;10.900;2023-10-08T03:44:50;3.92;;;2.33;;
21432;SDS011;18592;49.708;10.900;2023-10-08T03:46:53;4.18;;;2.60;;
21432;SDS011;18592;49.708;10.900;2023-10-08T03:48:58;4.13;;;2.63;;
21432;SDS011;18592;49.708;10.900;2023-10-08T03:51:06;5.30;;;2.67;;
21432;SDS011;18592;49.708;10.900;2023-10-08T03:53:13;4.13;;;2.53;;
21432;SDS011;18592;49.708;10.900;2023-10-08T03:55:14;3.90;;;2.53;;
21432;SDS011;18592;49.708;10.900;2023-10-08T03:57:28;4.50;;;2.63;;
21432;SDS011;18592;49.708;10.900;2023-10-08T03:59:43;3.95;;;2.50;;
21432;SDS011;18592;49.708;10.900;2023-10-08T04:01:45;3.45;;;2.47;;
21432;SDS011;18592;49.708;10.900;2023-10-08T04:03:46;4.57;;;2.60;;
21432;SDS011;18592;49.708;10.900;2023-10-08T04:05:54;4.00;;;2.75;;
21432;SDS011;18592;49.708;10.900;2023-10-08T04:08:15;3.22;;;2.35;;
21432;SDS011;18592;49.708;10.900;2023-10-08T04:10:43;3.40;;;2.35;;
21432;SDS011;18592;49.708;10.900;2023-10-08T04:12:45;5.28;;;2.53;;
21432;SDS011;18592;49.708;10.900;2023-10-08T04:14:51;3.92;;;2.60;;
21432;SDS011;18592;49.708;10.900;2023-10-08T04:16:57;4.93;;;2.67;;
21432;SDS011;18592;49.708;10.900;2023-10-08T04:19:00;3.90;;;2.50;;
21432;SDS011;18592;49.708;10.900;2023-10-08T04:21:04;4.47;;;2.58;;
21432;SDS011;18592;49.708;10.900;2023-10-08T04:23:09;5.00;;;2.42;;
21432;SDS011;18592;49.708;10.900;2023-10-08T04:25:22;4.63;;;2.90;;
21432;SDS011;18592;49.708;10.900;2023-10-08T04:27:24;4.05;;;2.55;;
21432;SDS011;18592;49.708;10.900;2023-10-08T04:29:31;4.85;;;2.78;;
21432;SDS011;18592;49.708;10.900;2023-10-08T04:31:33;4.18;;;2.85;;
21432;SDS011;18592;49.708;10.900;2023-10-08T04:33:39;4.35;;;2.65;;
21432;SDS011;18592;49.708;10.900;2023-10-08T04:35:45;4.25;;;2.70;;
21432;SDS011;18592;49.708;10.900;2023-10-08T04:37:52;3.97;;;2.60;;
21432;SDS011;18592;49.708;10.900;2023-10-08T04:39:56;3.20;;;2.28;;
21432;SDS011;18592;49.708;10.900;2023-10-08T04:42:01;4.43;;;2.65;;
21432;SDS011;18592;49.708;10.900;2023-10-08T04:44:18;3.65;;;2.53;;
21432;SDS011;18592;49.708;10.900;2023-10-08T04:46:20;3.15;;;2.45;;
21432;SDS011;18592;49.708;10.900;2023-10-08T04:48:41;3.92;;;2.47;;
21432;SDS011;18592;49.708;10.900;2023-10-08T04:50:45;5.15;;;2.63;;
21432;SDS011;18592;49.708;10.900;2023-10-08T04:52:50;3.75;;;2.63;;
21432;SDS011;18592;49.708;10.900;2023-10-08T04:55:01;4.03;;;2.67;;
21432;SDS011;18592;49.708;10.900;2023-10-08T04:57:14;4.93;;;3.13;;
21432;SDS011;18592;49.708;10.900;2023-10-08T04:59:18;4.03;;;2.45;;
21432;SDS011;18592;49.708;10.900;2023-10-08T05:01:23;4.00;;;2.53;;
21432;SDS011;18592;49.708;10.900;2023-10-08T05:03:42;3.55;;;2.58;;
21432;SDS011;18592;49.708;10.900;2023-10-08T05:06:09;3.90;;;2.63;;
21432;SDS011;18592;49.708;10.900;2023-10-08T05:08:15;6.03;;;3.25;;
21432;SDS011;18592;49.708;10.900;2023-10-08T05:10:29;3.42;;;2.30;;
21432;SDS011;18592;49.708;10.900;2023-10-08T05:12:31;4.68;;;2.75;;
21432;SDS011;18592;49.708;10.900;2023-10-08T05:14:39;3.65;;;2.53;;
21432;SDS011;18592;49.708;10.900;2023-10-08T05:16:58;5.35;;;2.88;;
21432;SDS011;18592;49.708;10.900;2023-10-08T05:19:18;4.93;;;3.03;;
21432;SDS011;18592;49.708;10.900;2023-10-08T05:21:38;3.63;;;2.33;;
21432;SDS011;18592;49.708;10.900;2023-10-08T05:23:52;3.90;;;2.95;;
21432;SDS011;18592;49.708;10.900;2023-10-08T05:26:15;4.30;;;2.85;;
21432;SDS011;18592;49.708;10.900;2023-10-08T05:28:35;3.90;;;2.78;;
21432;SDS011;18592;49.708;10.900;2023-10-08T05:30:48;5.85;;;2.70;;
21432;SDS011;18592;49.708;10.900;2023-10-08T05:33:13;5.15;;;2.50;;
21432;SDS011;18592;49.708;10.900;2023-10-08T05:35:25;5.55;;;2.80;;
21432;SDS011;18592;49.708;10.900;2023-10-08T05:37:50;3.55;;;2.47;;
21432;SDS011;18592;49.708;10.900;2023-10-08T05:40:06;3.70;;;2.58;;
21432;SDS011;18592;49.708;10.900;2023-10-08T05:42:14;4.53;;;2.90;;
21432;SDS011;18592;49.708;10.900;2023-10-08T05:44:32;4.20;;;2.60;;
21432;SDS011;18592;49.708;10.900;2023-10-08T05:46:41;3.80;;;2.40;;
21432;SDS011;18592;49.708;10.900;2023-10-08T05:48:55;4.97;;;2.72;;
21432;SDS011;18592;49.708;10.900;2023-10-08T05:51:08;3.40;;;2.35;;
21432;SDS011;18592;49.708;10.900;2023-10-08T05:53:29;3.55;;;2.38;;
21432;SDS011;18592;49.708;10.900;2023-10-08T05:55:45;5.15;;;2.85;;
21432;SDS011;18592;49.708;10.900;2023-10-08T05:58:02;3.25;;;2.42;;
21432;SDS011;18592;49.708;10.900;2023-10-08T06:00:15;3.08;;;2.28;;
21432;SDS011;18592;49.708;10.900;2023-10-08T06:02:16;4.47;;;2.70;;
21432;SDS011;18592;49.708;10.900;2023-10-08T06:04:34;3.85;;;2.42;;
21432;SDS011;18592;49.708;10.900;2023-10-08T06:07:10;4.20;;;2.63;;
21432;SDS011;18592;49.708;10.900;2023-10-08T06:09:21;3.83;;;2.58;;
21432;SDS011;18592;49.708;10.900;2023-10-08T06:11:23;4.40;;;2.95;;
21432;SDS011;18592;49.708;10.900;2023-10-08T06:13:46;4.53;;;2.70;;
21432;SDS011;18592;49.708;10.900;2023-10-08T06:15:56;6.05;;;2.60;;
21432;SDS011;18592;49.708;10.900;2023-10-08T06:17:57;5.72;;;2.78;;
21432;SDS011;18592;49.708;10.900;2023-10-08T06:20:06;5.32;;;3.05;;
21432;SDS011;18592;49.708;10.900;2023-10-08T06:22:11;4.15;;;2.60;;
21432;SDS011;18592;49.708;10.900;2023-10-08T06:24:17;4.35;;;2.28;;
21432;SDS011;18592;49.708;10.900;2023-10-08T06:26:19;3.67;;;2.50;;
21432;SDS011;18592;49.708;10.900;2023-10-08T06:28:22;3.03;;;2.53;;
21432;SDS011;18592;49.708;10.900;2023-10-08T06:30:27;3.45;;;2.53;;
21432;SDS011;18592;49.708;10.900;2023-10-08T06:32:30;3.80;;;2.33;;
21432;SDS011;18592;49.708;10.900;2023-10-08T06:34:36;4.45;;;2.55;;
21432;SDS011;18592;49.708;10.900;2023-10-08T06:36:37;3.53;;;2.60;;
21432;SDS011;18592;49.708;10.900;2023-10-08T06:38:45;3.50;;;2.50;;
21432;SDS011;18592;49.708;10.900;2023-10-08T06:40:51;4.45;;;2.83;;
21432;SDS011;18592;49.708;10.900;2023-10-08T06:42:54;5.03;;;2.70;;
21432;SDS011;18592;49.708;10.900;2023-10-08T06:44:58;4.72;;;2.67;;
21432;SDS011;18592;49.708;10.900;2023-10-08T06:47:00;3.90;;;2.60;;
21432;SDS011;18592;49.708;10.900;2023-10-08T06:49:06;4.55;;;2.80;;
21432;SDS011;18592;49.708;10.900;2023-10-08T06:51:15;3.63;;;2.53;;
21432;SDS011;18592;49.708;10.900;2023-10-08T06:53:20;4.00;;;2.58;;
21432;SDS011;18592;49.708;10.900;2023-10-08T06:55:23;3.45;;;2.53;;
21432;SDS011;18592;49.708;10.900;2023-10-08T06:57:28;4.53;;;2.47;;
21432;SDS011;18592;49.708;10.900;2023-10-08T06:59:29;3.92;;;2.35;;
21432;SDS011;18592;49.708;10.900;2023-10-08T07:01:33;2.78;;;2.08;;
21432;SDS011;18592;49.708;10.900;2023-10-08T07:03:39;3.28;;;2.53;;
21432;SDS011;18592;49.708;10.900;2023-10-08T07:05:41;3.63;;;2.55;;
21432;SDS011;18592;49.708;10.900;2023-10-08T07:07:47;3.90;;;2.67;;
21432;SDS011;18592;49.708;10.900;2023-10-08T07:09:48;4.35;;;2.72;;
21432;SDS011;18592;49.708;10.900;2023-10-08T07:11:53;4.90;;;3.00;;
21432;SDS011;18592;49.708;10.900;2023-10-08T07:13:56;4.22;;;2.67;;
21432;SDS011;18592;49.708;10.900;2023-10-08T07:15:58;3.78;;;2.63;;
21432;SDS011;18592;49.708;10.900;2023-10-08T07:18:05;3.53;;;2.45;;
21432;SDS011;18592;49.708;10.900;2023-10-08T07:20:11;3.58;;;2.55;;
21432;SDS011;18592;49.708;10.900;2023-10-08T07:22:15;3.50;;;2.30;;
21432;SDS011;18592;49.708;10.900;2023-10-08T07:24:23;5.03;;;2.90;;
21432;SDS011;18592;49.708;10.900;2023-10-08T07:26:25;4.18;;;2.70;;
21432;SDS011;18592;49.708;10.900;2023-10-08T07:28:27;2.97;;;2.40;;
21432;SDS011;18592;49.708;10.900;2023-10-08T07:30:35;4.38;;;2.72;;
21432;SDS011;18592;49.708;10.900;2023-10-08T07:32:41;3.47;;;2.45;;
21432;SDS011;18592;49.708;10.900;2023-10-08T07:34:42;4.93;;;2.50;;
21432;SDS011;18592;49.708;10.900;2023-10-08T07:36:46;3.28;;;2.50;;
21432;SDS011;18592;49.708;10.900;2023-10-08T07:38:48;4.10;;;2.75;;
21432;SDS011;18592;49.708;10.900;2023-10-08T07:40:50;3.67;;;2.58;;
21432;SDS011;18592;49.708;10.900;2023-10-08T07:42:51;3.38;;;2.70;;
21432;SDS011;18592;49.708;10.900;2023-10-08T07:44:53;4.13;;;2.67;;
21432;SDS011;18592;49.708;10.900;2023-10-08T07:46:58;2.80;;;2.03;;
21432;SDS011;18592;49.708;10.900;2023-10-08T07:48:59;3.50;;;2.60;;
21432;SDS011;18592;49.708;10.900;2023-10-08T07:51:01;3.53;;;2.38;;
21432;SDS011;18592;49.708;10.900;2023-10-08T07:53:03;4.90;;;2.80;;
21432;SDS011;18592;49.708;10.900;2023-10-08T07:55:05;3.30;;;2.45;;
21432;SDS011;18592;49.708;10.900;2023-10-08T07:57:07;3.78;;;2.60;;
21432;SDS011;18592;49.708;10.900;2023-10-08T07:59:13;4.13;;;2.72;;
21432;SDS011;18592;49.708;10.900;2023-10-08T08:01:15;4.72;;;2.38;;
21432;SDS011;18592;49.708;10.900;2023-10-08T08:03:20;3.85;;;2.80;;
21432;SDS011;18592;49.708;10.900;2023-10-08T08:05:22;4.40;;;3.08;;
21432;SDS011;18592;49.708;10.900;2023-10-08T08:07:24;4.13;;;2.80;;
21432;SDS011;18592;49.708;10.900;2023-10-08T08:09:26;3.92;;;2.83;;
21432;SDS011;18592;49.708;10.900;2023-10-08T08:11:28;4.85;;;2.90;;
21432;SDS011;18592;49.708;10.900;2023-10-08T08:13:33;5.60;;;3.40;;
21432;SDS011;18592;49.708;10.900;2023-10-08T08:15:35;4.47;;;2.97;;
21432;SDS011;18592;49.708;10.900;2023-10-08T08:17:42;4.15;;;3.00;;
21432;SDS011;18592;49.708;10.900;2023-10-08T08:19:46;5.70;;;3.33;;
21432;SDS011;18592;49.708;10.900;2023-10-08T08:21:49;5.07;;;3.13;;
21432;SDS011;18592;49.708;10.900;2023-10-08T08:23:50;6.82;;;2.88;;
21432;SDS011;18592;49.708;10.900;2023-10-08T08:25:52;4.97;;;3.15;;
21432;SDS011;18592;49.708;10.900;2023-10-08T08:28:12;4.57;;;2.83;;
21432;SDS011;18592;49.708;10.900;2023-10-08T08:30:18;5.20;;;3.30;;
21432;SDS011;18592;49.708;10.900;2023-10-08T08:32:24;5.88;;;3.05;;
21432;SDS011;18592;49.708;10.900;2023-10-08T08:34:26;4.28;;;2.85;;
21432;SDS011;18592;49.708;10.900;2023-10-08T08:36:30;4.88;;;3.05;;
21432;SDS011;18592;49.708;10.900;2023-10-08T08:38:33;4.97;;;2.97;;
21432;SDS011;18592;49.708;10.900;2023-10-08T08:40:34;4.40;;;3.30;;
21432;SDS011;18592;49.708;10.900;2023-10-08T08:42:36;6.68;;;3.17;;
21432;SDS011;18592;49.708;10.900;2023-10-08T08:44:38;3.75;;;2.78;;
21432;SDS011;18592;49.708;10.900;2023-10-08T08:46:48;4.40;;;3.08;;
21432;SDS011;18592;49.708;10.900;2023-10-08T08:48:50;4.28;;;2.97;;
21432;SDS011;18592;49.708;10.900;2023-10-08T08:50:54;4.53;;;2.80;;
21432;SDS011;18592;49.708;10.900;2023-10-08T08:52:56;4.93;;;3.13;;
21432;SDS011;18592;49.708;10.900;2023-10-08T08:54:59;4.68;;;3.13;;
21432;SDS011;18592;49.708;10.900;2023-10-08T08:57:04;4.43;;;2.85;;
21432;SDS011;18592;49.708;10.900;2023-10-08T08:59:07;3.88;;;2.78;;
21432;SDS011;18592;49.708;10.900;2023-10-08T09:01:13;3.67;;;2.60;;
21432;SDS011;18592;49.708;10.900;2023-10-08T09:03:15;4.80;;;2.80;;
21432;SDS011;18592;49.708;10.900;2023-10-08T09:05:17;5.97;;;2.92;;
21432;SDS011;18592;49.708;10.900;2023-10-08T09:07:27;4.25;;;2.60;;
21432;SDS011;18592;49.708;10.900;2023-10-08T09:09:33;3.90;;;2.50;;
21432;SDS011;18592;49.708;10.900;2023-10-08T09:11:37;3.83;;;2.70;;
21432;SDS011;18592;49.708;10.900;2023-10-08T09:13:44;3.95;;;2.58;;
21432;SDS011;18592;49.708;10.900;2023-10-08T09:15:52;5.88;;;3.05;;
21432;SDS011;18592;49.708;10.900;2023-10-08T09:17:56;4.47;;;3.05;;
21432;SDS011;18592;49.708;10.900;2023-10-08T09:20:02;4.80;;;3.08;;
21432;SDS011;18592;49.708;10.900;2023-10-08T09:22:08;6.00;;;3.65;;
21432;SDS011;18592;49.708;10.900;2023-10-08T09:24:12;5.60;;;3.25;;
21432;SDS011;18592;49.708;10.900;2023-10-08T09:26:24;5.80;;;3.35;;
21432;SDS011;18592;49.708;10.900;2023-10-08T09:39:05;5.82;;;3.50;;
21432;SDS011;18592;49.708;10.900;2023-10-08T09:41:07;6.28;;;3.60;;
21432;SDS011;18592;49.708;10.900;2023-10-08T09:43:11;5.03;;;3.05;;
21432;SDS011;18592;49.708;10.900;2023-10-08T09:45:12;6.43;;;3.90;;
21432;SDS011;18592;49.708;10.900;2023-10-08T09:47:17;6.55;;;3.83;;
21432;SDS011;18592;49.708;10.900;2023-10-08T09:49:53;4.88;;;3.38;;
21432;SDS011;18592;49.708;10.900;2023-10-08T09:52:06;7.22;;;3.63;;
21432;SDS011;18592;49.708;10.900;2023-10-08T09:54:11;5.40;;;3.55;;
21432;SDS011;18592;49.708;10.900;2023-10-08T09:56:19;7.10;;;4.30;;
21432;SDS011;18592;49.708;10.900;2023-10-08T09:58:30;6.07;;;3.67;;
21432;SDS011;18592;49.708;10.900;2023-10-08T10:00:31;8.57;;;3.63;;
21432;SDS011;18592;49.708;10.900;2023-10-08T10:02:33;6.65;;;3.70;;
21432;SDS011;18592;49.708;10.900;2023-10-08T10:04:44;5.65;;;3.35;;
21432;SDS011;18592;49.708;10.900;2023-10-08T10:06:46;7.25;;;3.47;;
21432;SDS011;18592;49.708;10.900;2023-10-08T10:08:47;6.43;;;3.70;;
21432;SDS011;18592;49.708;10.900;2023-10-08T10:11:00;7.10;;;3.92;;
21432;SDS011;18592;49.708;10.900;2023-10-08T10:13:02;6.80;;;3.55;;
21432;SDS011;18592;49.708;10.900;2023-10-08T10:15:04;6.05;;;4.25;;
21432;SDS011;18592;49.708;10.900;2023-10-08T10:17:30;5.57;;;3.58;;
21432;SDS011;18592;49.708;10.900;2023-10-08T10:19:45;5.32;;;3.40;;
21432;SDS011;18592;49.708;10.900;2023-10-08T10:21:51;6.07;;;3.50;;
21432;SDS011;18592;49.708;10.900;2023-10-08T10:23:51;6.00;;;3.72;;
21432;SDS011;18592;49.708;10.900;2023-10-08T10:26:22;7.72;;;3.67;;
21432;SDS011;18592;49.708;10.900;2023-10-08T10:28:24;6.95;;;4.18;;
21432;SDS011;18592;49.708;10.900;2023-10-08T10:30:25;5.80;;;3.78;;
21432;SDS011;18592;49.708;10.900;2023-10-08T10:32:28;6.20;;;3.50;;
21432;SDS011;18592;49.708;10.900;2023-10-08T10:34:32;5.95;;;3.67;;
21432;SDS011;18592;49.708;10.900;2023-10-08T10:36:35;6.80;;;3.50;;
21432;SDS011;18592;49.708;10.900;2023-10-08T10:38:49;6.43;;;4.00;;
21432;SDS011;18592;49.708;10.900;2023-10-08T10:40:53;7.55;;;3.70;;
21432;SDS011;18592;49.708;10.900;2023-10-08T10:42:58;8.52;;;3.92;;
21432;SDS011;18592;49.708;10.900;2023-10-08T10:45:03;5.88;;;3.50;;
21432;SDS011;18592;49.708;10.900;2023-10-08T10:47:10;5.90;;;3.88;;
21432;SDS011;18592;49.708;10.900;2023-10-08T10:49:20;7.53;;;3.95;;
21432;SDS011;18592;49.708;10.900;2023-10-08T10:51:33;6.22;;;3.38;;
21432;SDS011;18592;49.708;10.900;2023-10-08T10:53:37;5.45;;;3.38;;
21432;SDS011;18592;49.708;10.900;2023-10-08T10:55:46;4.85;;;3.55;;
21432;SDS011;18592;49.708;10.900;2023-10-08T10:58:01;6.07;;;3.83;;
21432;SDS011;18592;49.708;10.900;2023-10-08T11:00:13;6.93;;;3.78;;
21432;SDS011;18592;49.708;10.900;2023-10-08T11:02:35;6.60;;;3.60;;
21432;SDS011;18592;49.708;10.900;2023-10-08T11:04:39;4.78;;;3.42;;
21432;SDS011;18592;49.708;10.900;2023-10-08T11:06:51;5.82;;;3.50;;
21432;SDS011;18592;49.708;10.900;2023-10-08T11:08:52;7.40;;;3.92;;
21432;SDS011;18592;49.708;10.900;2023-10-08T11:10:55;5.78;;;3.95;;
21432;SDS011;18592;49.708;10.900;2023-10-08T11:13:00;6.63;;;3.63;;
21432;SDS011;18592;49.708;10.900;2023-10-08T11:15:02;6.55;;;3.75;;
21432;SDS011;18592;49.708;10.900;2023-10-08T11:17:16;6.35;;;3.30;;
21432;SDS011;18592;49.708;10.900;2023-10-08T11:19:28;5.57;;;3.70;;
21432;SDS011;18592;49.708;10.900;2023-10-08T11:21:29;5.10;;;3.10;;
21432;SDS011;18592;49.708;10.900;2023-10-08T11:23:36;5.95;;;4.00;;
21432;SDS011;18592;49.708;10.900;2023-10-08T11:25:39;6.40;;;3.75;;
21432;SDS011;18592;49.708;10.900;2023-10-08T11:27:44;7.10;;;4.00;;
21432;SDS011;18592;49.708;10.900;2023-10-08T11:29:47;7.57;;;4.03;;
21432;SDS011;18592;49.708;10.900;2023-10-08T11:31:48;6.95;;;3.88;;
21432;SDS011;18592;49.708;10.900;2023-10-08T11:33:49;6.32;;;3.97;;
21432;SDS011;18592;49.708;10.900;2023-10-08T11:35:57;7.75;;;3.58;;
21432;SDS011;18592;49.708;10.900;2023-10-08T11:38:12;5.40;;;3.83;;
21432;SDS011;18592;49.708;10.900;2023-10-08T11:40:23;7.95;;;3.88;;
21432;SDS011;18592;49.708;10.900;2023-10-08T11:42:50;8.20;;;4.20;;
21432;SDS011;18592;49.708;10.900;2023-10-08T11:45:01;6.03;;;3.88;;
21432;SDS011;18592;49.708;10.900;2023-10-08T11:47:21;7.05;;;3.92;;
21432;SDS011;18592;49.708;10.900;2023-10-08T11:49:23;5.38;;;3.42;;
21432;SDS011;18592;49.708;10.900;2023-10-08T11:51:27;6.47;;;3.80;;
21432;SDS011;18592;49.708;10.900;2023-10-08T11:53:30;5.07;;;3.55;;
21432;SDS011;18592;49.708;10.900;2023-10-08T11:55:33;5.13;;;3.80;;
21432;SDS011;18592;49.708;10.900;2023-10-08T11:57:51;6.50;;;3.40;;
21432;SDS011;18592;49.708;10.900;2023-10-08T11:59:59;7.28;;;4.35;;
21432;SDS011;18592;49.708;10.900;2023-10-08T12:02:00;6.20;;;3.80;;
21432;SDS011;18592;49.708;10.900;2023-10-08T12:04:04;6.88;;;3.80;;
21432;SDS011;18592;49.708;10.900;2023-10-08T12:06:06;6.85;;;3.85;;
21432;SDS011;18592;49.708;10.900;2023-10-08T12:08:09;4.85;;;3.58;;
21432;SDS011;18592;49.708;10.900;2023-10-08T12:10:16;7.40;;;4.15;;
21432;SDS011;18592;49.708;10.900;2023-10-08T12:12:26;7.20;;;4.35;;
21432;SDS011;18592;49.708;10.900;2023-10-08T12:14:29;6.93;;;3.83;;
21432;SDS011;18592;49.708;10.900;2023-10-08T12:16:31;11.93;;;4.68;;
21432;SDS011;18592;49.708;10.900;2023-10-08T12:18:38;6.25;;;3.67;;
21432;SDS011;18592;49.708;10.900;2023-10-08T12:20:47;6.38;;;4.40;;
21432;SDS011;18592;49.708;10.900;2023-10-08T12:22:48;6.80;;;4.15;;
21432;SDS011;18592;49.708;10.900;2023-10-08T12:24:57;9.25;;;4.05;;
21432;SDS011;18592;49.708;10.900;2023-10-08T12:27:00;6.63;;;4.43;;
21432;SDS011;18592;49.708;10.900;2023-10-08T12:29:04;9.27;;;4.47;;
21432;SDS011;18592;49.708;10.900;2023-10-08T12:31:07;8.63;;;4.43;;
21432;SDS011;18592;49.708;10.900;2023-10-08T12:33:19;6.43;;;4.22;;
21432;SDS011;18592;49.708;10.900;2023-10-08T12:35:20;6.53;;;4.35;;
21432;SDS011;18592;49.708;10.900;2023-10-08T12:37:21;9.75;;;5.00;;
21432;SDS011;18592;49.708;10.900;2023-10-08T12:39:23;8.05;;;4.43;;
21432;SDS011;18592;49.708;10.900;2023-10-08T12:41:29;8.85;;;4.55;;
21432;SDS011;18592;49.708;10.900;2023-10-08T12:43:32;9.25;;;4.80;;